sensor_id;sensor_type;location;lat;lon;timestamp;pressure;altitude;pressure_sealevel;temperature;humidity
74524;BME280;63074;44.696;10.358;2024-01-15T00:00:44;99050.81;;;6.39;100.00
74524;BME280;63074;44.696;10.358;2024-01-15T00:03:10;99041.66;;;6.47;100.00
74524;BME280;63074;44.696;10.358;2024-01-15T00:05:37;99032.00;;;6.46;100.00
74524;BME280;63074;44.696;10.358;2024-01-15T00:08:03;99021.56;;;6.56;100.00
74524;BME280;63074;44.696;10.358;2024-01-15T00:10:29;99016.03;;;6.34;100.00
74524;BME280;63074;44.696;10.358;2024-01-15T00:12:55;99014.56;;;6.66;100.00
74524;BME280;63074;44.696;10.358;2024-01-15T00:15:22;99002.06;;;6.43;100.00
74524;BME280;63074;44.696;10.358;2024-01-15T00:17:48;98997.91;;;6.48;100.00
74524;BME280;63074;44.696;10.358;2024-01-15T00:20:14;99006.03;;;6.29;100.00
74524;BME280;63074;44.696;10.358;2024-01-15T00:22:40;98999.63;;;6.54;100.00
74524;BME280;63074;44.696;10.358;2024-01-15T00:25:07;99008.25;;;6.32;100.00
74524;BME280;63074;44.696;10.358;2024-01-15T00:27:33;99014.59;;;6.43;100.00
74524;BME280;63074;44.696;10.358;2024-01-15T00:29:59;99008.38;;;6.26;100.00
74524;BME280;63074;44.696;10.358;2024-01-15T00:32:25;99004.50;;;6.45;100.00
74524;BME280;63074;44.696;10.358;2024-01-15T00:34:51;98996.50;;;6.57;100.00
74524;BME280;63074;44.696;10.358;2024-01-15T00:37:17;98980.69;;;6.67;100.00
74524;BME280;63074;44.696;10.358;2024-01-15T00:39:44;98985.19;;;6.78;100.00
74524;BME280;63074;44.696;10.358;2024-01-15T00:42:10;98968.81;;;6.74;100.00
74524;BME280;63074;44.696;10.358;2024-01-15T00:44:36;98971.59;;;6.80;100.00
74524;BME280;63074;44.696;10.358;2024-01-15T00:47:03;98972.44;;;6.68;100.00
74524;BME280;63074;44.696;10.358;2024-01-15T00:49:29;98972.66;;;6.67;100.00
74524;BME280;63074;44.696;10.358;2024-01-15T00:51:55;98973.19;;;6.52;100.00
74524;BME280;63074;44.696;10.358;2024-01-15T00:54:21;98961.53;;;6.70;100.00
74524;BME280;63074;44.696;10.358;2024-01-15T00:56:48;98970.38;;;6.59;100.00
74524;BME280;63074;44.696;10.358;2024-01-15T00:59:14;98968.75;;;6.58;100.00
74524;BME280;63074;44.696;10.358;2024-01-15T01:01:43;98973.34;;;6.74;100.00
74524;BME280;63074;44.696;10.358;2024-01-15T01:04:12;98968.72;;;7.09;100.00
74524;BME280;63074;44.696;10.358;2024-01-15T01:06:38;98968.94;;;6.04;100.00
74524;BME280;63074;44.696;10.358;2024-01-15T01:09:04;98972.59;;;5.80;100.00
74524;BME280;63074;44.696;10.358;2024-01-15T01:11:31;98958.09;;;5.64;100.00
74524;BME280;63074;44.696;10.358;2024-01-15T01:13:57;98944.88;;;5.81;100.00
74524;BME280;63074;44.696;10.358;2024-01-15T01:16:23;98944.91;;;5.16;100.00
74524;BME280;63074;44.696;10.358;2024-01-15T01:18:49;98948.50;;;5.75;100.00
74524;BME280;63074;44.696;10.358;2024-01-15T01:21:16;98943.03;;;5.58;100.00
74524;BME280;63074;44.696;10.358;2024-01-15T01:23:42;98940.75;;;6.20;100.00
74524;BME280;63074;44.696;10.358;2024-01-15T01:26:09;98947.13;;;6.07;100.00
74524;BME280;63074;44.696;10.358;2024-01-15T01:28:35;98941.31;;;6.34;100.00
74524;BME280;63074;44.696;10.358;2024-01-15T01:31:01;98942.19;;;6.51;100.00
74524;BME280;63074;44.696;10.358;2024-01-15T01:33:27;98935.28;;;6.67;100.00
74524;BME280;63074;44.696;10.358;2024-01-15T01:35:53;98939.50;;;6.63;100.00
74524;BME280;63074;44.696;10.358;2024-01-15T01:38:20;98946.03;;;6.43;100.00
74524;BME280;63074;44.696;10.358;2024-01-15T01:40:46;98950.31;;;6.56;100.00
74524;BME280;63074;44.696;10.358;2024-01-15T01:43:12;98944.88;;;6.39;100.00
74524;BME280;63074;44.696;10.358;2024-01-15T01:45:38;98943.59;;;6.42;100.00
74524;BME280;63074;44.696;10.358;2024-01-15T01:48:05;98946.78;;;5.92;100.00
74524;BME280;63074;44.696;10.358;2024-01-15T01:50:31;98940.03;;;5.66;100.00
74524;BME280;63074;44.696;10.358;2024-01-15T01:52:58;98929.94;;;5.68;100.00
74524;BME280;63074;44.696;10.358;2024-01-15T01:55:26;98934.44;;;5.45;100.00
74524;BME280;63074;44.696;10.358;2024-01-15T01:57:54;98926.94;;;5.88;100.00
74524;BME280;63074;44.696;10.358;2024-01-15T02:00:21;98918.47;;;5.80;100.00
74524;BME280;63074;44.696;10.358;2024-01-15T02:02:47;98916.63;;;6.15;100.00
74524;BME280;63074;44.696;10.358;2024-01-15T02:05:14;98905.00;;;6.21;100.00
74524;BME280;63074;44.696;10.358;2024-01-15T02:07:44;98909.28;;;6.34;100.00
74524;BME280;63074;44.696;10.358;2024-01-15T02:10:11;98917.19;;;6.17;100.00
74524;BME280;63074;44.696;10.358;2024-01-15T02:12:37;98917.53;;;5.86;100.00
74524;BME280;63074;44.696;10.358;2024-01-15T02:15:03;98921.03;;;6.21;100.00
74524;BME280;63074;44.696;10.358;2024-01-15T02:17:30;98922.06;;;6.32;100.00
74524;BME280;63074;44.696;10.358;2024-01-15T02:19:56;98916.84;;;5.78;100.00
74524;BME280;63074;44.696;10.358;2024-01-15T02:22:22;98920.69;;;5.94;100.00
74524;BME280;63074;44.696;10.358;2024-01-15T02:24:48;98922.44;;;6.00;100.00
74524;BME280;63074;44.696;10.358;2024-01-15T02:27:15;98916.75;;;5.97;100.00
74524;BME280;63074;44.696;10.358;2024-01-15T02:29:41;98910.94;;;5.88;100.00
74524;BME280;63074;44.696;10.358;2024-01-15T02:32:09;98913.72;;;6.17;100.00
74524;BME280;63074;44.696;10.358;2024-01-15T02:34:35;98904.44;;;6.19;100.00
74524;BME280;63074;44.696;10.358;2024-01-15T02:37:01;98905.38;;;6.13;100.00
74524;BME280;63074;44.696;10.358;2024-01-15T02:39:28;98897.00;;;6.21;100.00
74524;BME280;63074;44.696;10.358;2024-01-15T02:41:55;98893.84;;;6.36;100.00
74524;BME280;63074;44.696;10.358;2024-01-15T02:44:23;98892.09;;;6.41;100.00
74524;BME280;63074;44.696;10.358;2024-01-15T02:46:49;98886.38;;;6.50;100.00
74524;BME280;63074;44.696;10.358;2024-01-15T02:49:15;98883.91;;;6.60;100.00
74524;BME280;63074;44.696;10.358;2024-01-15T02:51:42;98882.00;;;6.43;100.00
74524;BME280;63074;44.696;10.358;2024-01-15T02:54:08;98895.81;;;6.40;100.00
74524;BME280;63074;44.696;10.358;2024-01-15T02:56:34;98897.47;;;6.30;100.00
74524;BME280;63074;44.696;10.358;2024-01-15T02:59:00;98890.47;;;6.40;100.00
74524;BME280;63074;44.696;10.358;2024-01-15T03:01:26;98878.09;;;6.34;100.00
74524;BME280;63074;44.696;10.358;2024-01-15T03:03:53;98876.94;;;6.30;100.00
74524;BME280;63074;44.696;10.358;2024-01-15T03:06:21;98869.34;;;6.39;100.00
74524;BME280;63074;44.696;10.358;2024-01-15T03:08:47;98860.41;;;6.05;100.00
74524;BME280;63074;44.696;10.358;2024-01-15T03:11:13;98853.19;;;5.82;100.00
74524;BME280;63074;44.696;10.358;2024-01-15T03:13:39;98837.56;;;5.16;100.00
74524;BME280;63074;44.696;10.358;2024-01-15T03:16:06;98830.97;;;5.53;100.00
74524;BME280;63074;44.696;10.358;2024-01-15T03:18:32;98831.44;;;5.62;100.00
74524;BME280;63074;44.696;10.358;2024-01-15T03:20:58;98826.69;;;5.52;100.00
74524;BME280;63074;44.696;10.358;2024-01-15T03:23:27;98819.03;;;6.02;100.00
74524;BME280;63074;44.696;10.358;2024-01-15T03:25:53;98817.72;;;5.82;100.00
74524;BME280;63074;44.696;10.358;2024-01-15T03:28:19;98822.56;;;6.08;100.00
74524;BME280;63074;44.696;10.358;2024-01-15T03:30:45;98819.81;;;5.80;100.00
74524;BME280;63074;44.696;10.358;2024-01-15T03:33:11;98813.50;;;5.46;100.00
74524;BME280;63074;44.696;10.358;2024-01-15T03:35:38;98793.19;;;6.31;100.00
74524;BME280;63074;44.696;10.358;2024-01-15T03:38:04;98794.88;;;6.09;100.00
74524;BME280;63074;44.696;10.358;2024-01-15T03:40:33;98792.94;;;6.33;100.00
74524;BME280;63074;44.696;10.358;2024-01-15T03:42:59;98793.16;;;6.60;100.00
74524;BME280;63074;44.696;10.358;2024-01-15T03:45:26;98787.09;;;6.64;100.00
74524;BME280;63074;44.696;10.358;2024-01-15T03:47:52;98784.75;;;6.68;100.00
74524;BME280;63074;44.696;10.358;2024-01-15T03:50:18;98771.88;;;6.65;100.00
74524;BME280;63074;44.696;10.358;2024-01-15T03:52:44;98769.91;;;6.43;100.00
74524;BME280;63074;44.696;10.358;2024-01-15T03:55:11;98767.34;;;6.65;100.00
74524;BME280;63074;44.696;10.358;2024-01-15T03:57:37;98765.00;;;6.69;100.00
74524;BME280;63074;44.696;10.358;2024-01-15T04:00:03;98774.19;;;6.44;100.00
74524;BME280;63074;44.696;10.358;2024-01-15T04:02:30;98765.00;;;6.52;100.00
74524;BME280;63074;44.696;10.358;2024-01-15T04:04:56;98770.06;;;6.37;100.00
74524;BME280;63074;44.696;10.358;2024-01-15T04:07:23;98761.34;;;6.41;100.00
74524;BME280;63074;44.696;10.358;2024-01-15T04:09:49;98766.75;;;5.90;100.00
74524;BME280;63074;44.696;10.358;2024-01-15T04:12:15;98768.94;;;5.81;100.00
74524;BME280;63074;44.696;10.358;2024-01-15T04:14:41;98761.34;;;5.73;100.00
74524;BME280;63074;44.696;10.358;2024-01-15T04:17:07;98758.25;;;6.04;100.00
74524;BME280;63074;44.696;10.358;2024-01-15T04:19:34;98763.50;;;5.99;100.00
74524;BME280;63074;44.696;10.358;2024-01-15T04:22:00;98758.97;;;6.00;100.00
74524;BME280;63074;44.696;10.358;2024-01-15T04:24:26;98758.47;;;5.39;100.00
74524;BME280;63074;44.696;10.358;2024-01-15T04:26:52;98756.09;;;5.90;100.00
74524;BME280;63074;44.696;10.358;2024-01-15T04:29:18;98756.22;;;5.71;100.00
74524;BME280;63074;44.696;10.358;2024-01-15T04:31:44;98763.03;;;5.79;100.00
74524;BME280;63074;44.696;10.358;2024-01-15T04:34:11;98752.28;;;6.14;100.00
74524;BME280;63074;44.696;10.358;2024-01-15T04:36:40;98755.84;;;6.03;100.00
74524;BME280;63074;44.696;10.358;2024-01-15T04:39:07;98746.91;;;6.26;100.00
74524;BME280;63074;44.696;10.358;2024-01-15T04:41:34;98755.34;;;6.34;100.00
74524;BME280;63074;44.696;10.358;2024-01-15T04:44:00;98736.41;;;6.36;100.00
74524;BME280;63074;44.696;10.358;2024-01-15T04:46:27;98724.16;;;6.52;100.00
74524;BME280;63074;44.696;10.358;2024-01-15T04:48:53;98733.88;;;5.72;100.00
74524;BME280;63074;44.696;10.358;2024-01-15T04:51:19;98734.50;;;6.65;100.00
74524;BME280;63074;44.696;10.358;2024-01-15T04:53:45;98743.53;;;6.30;100.00
74524;BME280;63074;44.696;10.358;2024-01-15T04:56:12;98733.47;;;6.49;100.00
74524;BME280;63074;44.696;10.358;2024-01-15T04:58:38;98720.81;;;6.44;100.00
74524;BME280;63074;44.696;10.358;2024-01-15T05:01:04;98731.78;;;6.60;100.00
74524;BME280;63074;44.696;10.358;2024-01-15T05:03:30;98747.97;;;5.96;100.00
74524;BME280;63074;44.696;10.358;2024-01-15T05:05:56;98753.19;;;5.80;100.00
74524;BME280;63074;44.696;10.358;2024-01-15T05:08:22;98753.19;;;6.20;100.00
74524;BME280;63074;44.696;10.358;2024-01-15T05:10:49;98758.63;;;5.85;100.00
74524;BME280;63074;44.696;10.358;2024-01-15T05:13:15;98754.00;;;5.80;100.00
74524;BME280;63074;44.696;10.358;2024-01-15T05:15:41;98766.59;;;5.45;100.00
74524;BME280;63074;44.696;10.358;2024-01-15T05:18:07;98761.03;;;5.34;100.00
74524;BME280;63074;44.696;10.358;2024-01-15T05:20:33;98775.88;;;5.19;100.00
74524;BME280;63074;44.696;10.358;2024-01-15T05:23:00;98792.66;;;4.66;100.00
74524;BME280;63074;44.696;10.358;2024-01-15T05:25:26;98788.75;;;4.38;100.00
74524;BME280;63074;44.696;10.358;2024-01-15T05:27:52;98776.88;;;5.06;100.00
74524;BME280;63074;44.696;10.358;2024-01-15T05:30:19;98778.16;;;5.27;100.00
74524;BME280;63074;44.696;10.358;2024-01-15T05:32:45;98792.38;;;4.44;100.00
74524;BME280;63074;44.696;10.358;2024-01-15T05:35:11;98783.22;;;4.93;100.00
74524;BME280;63074;44.696;10.358;2024-01-15T05:37:39;98776.75;;;5.01;100.00
74524;BME280;63074;44.696;10.358;2024-01-15T05:40:06;98766.13;;;5.48;100.00
74524;BME280;63074;44.696;10.358;2024-01-15T05:42:32;98743.88;;;5.42;100.00
74524;BME280;63074;44.696;10.358;2024-01-15T05:44:58;98732.19;;;4.85;100.00
74524;BME280;63074;44.696;10.358;2024-01-15T05:47:25;98714.81;;;5.29;100.00
74524;BME280;63074;44.696;10.358;2024-01-15T05:49:51;98708.34;;;5.13;100.00
74524;BME280;63074;44.696;10.358;2024-01-15T05:52:18;98699.31;;;4.79;100.00
74524;BME280;63074;44.696;10.358;2024-01-15T05:54:44;98705.34;;;5.09;100.00
74524;BME280;63074;44.696;10.358;2024-01-15T05:57:10;98697.13;;;4.88;100.00
74524;BME280;63074;44.696;10.358;2024-01-15T05:59:36;98703.38;;;5.17;100.00
74524;BME280;63074;44.696;10.358;2024-01-15T06:02:02;98721.75;;;4.71;100.00
74524;BME280;63074;44.696;10.358;2024-01-15T06:04:29;98731.38;;;4.96;100.00
74524;BME280;63074;44.696;10.358;2024-01-15T06:06:55;98727.09;;;5.82;100.00
74524;BME280;63074;44.696;10.358;2024-01-15T06:09:21;98723.00;;;6.31;100.00
74524;BME280;63074;44.696;10.358;2024-01-15T06:11:47;98713.75;;;6.22;100.00
74524;BME280;63074;44.696;10.358;2024-01-15T06:14:13;98707.28;;;5.77;100.00
74524;BME280;63074;44.696;10.358;2024-01-15T06:16:40;98715.72;;;5.98;100.00
74524;BME280;63074;44.696;10.358;2024-01-15T06:19:06;98716.34;;;6.17;100.00
74524;BME280;63074;44.696;10.358;2024-01-15T06:21:32;98721.28;;;5.85;100.00
74524;BME280;63074;44.696;10.358;2024-01-15T06:23:58;98732.09;;;5.90;100.00
74524;BME280;63074;44.696;10.358;2024-01-15T06:26:24;98733.44;;;6.32;100.00
74524;BME280;63074;44.696;10.358;2024-01-15T06:28:52;98735.06;;;6.67;100.00
74524;BME280;63074;44.696;10.358;2024-01-15T06:31:18;98731.63;;;6.83;100.00
74524;BME280;63074;44.696;10.358;2024-01-15T06:33:44;98718.00;;;5.54;100.00
74524;BME280;63074;44.696;10.358;2024-01-15T06:36:13;98709.94;;;5.77;100.00
74524;BME280;63074;44.696;10.358;2024-01-15T06:38:39;98713.28;;;5.96;100.00
74524;BME280;63074;44.696;10.358;2024-01-15T06:41:05;98715.16;;;6.24;100.00
74524;BME280;63074;44.696;10.358;2024-01-15T06:43:32;98715.16;;;5.96;100.00
74524;BME280;63074;44.696;10.358;2024-01-15T06:45:58;98705.63;;;6.28;100.00
74524;BME280;63074;44.696;10.358;2024-01-15T06:48:24;98711.78;;;6.00;100.00
74524;BME280;63074;44.696;10.358;2024-01-15T06:50:50;98719.59;;;6.35;100.00
74524;BME280;63074;44.696;10.358;2024-01-15T06:53:17;98729.44;;;6.18;100.00
74524;BME280;63074;44.696;10.358;2024-01-15T06:55:43;98720.47;;;5.84;100.00
74524;BME280;63074;44.696;10.358;2024-01-15T06:58:09;98714.53;;;5.65;100.00
74524;BME280;63074;44.696;10.358;2024-01-15T07:00:35;98707.72;;;5.98;100.00
74524;BME280;63074;44.696;10.358;2024-01-15T07:03:01;98697.81;;;6.10;100.00
74524;BME280;63074;44.696;10.358;2024-01-15T07:05:28;98692.91;;;5.38;100.00
74524;BME280;63074;44.696;10.358;2024-01-15T07:07:56;98691.78;;;5.23;100.00
74524;BME280;63074;44.696;10.358;2024-01-15T07:10:22;98689.59;;;4.96;100.00
74524;BME280;63074;44.696;10.358;2024-01-15T07:12:48;98675.47;;;5.59;100.00
74524;BME280;63074;44.696;10.358;2024-01-15T07:15:15;98678.69;;;6.47;100.00
74524;BME280;63074;44.696;10.358;2024-01-15T07:17:41;98687.44;;;6.42;100.00
74524;BME280;63074;44.696;10.358;2024-01-15T07:20:09;98697.31;;;5.96;100.00
74524;BME280;63074;44.696;10.358;2024-01-15T07:22:38;98711.31;;;6.03;100.00
74524;BME280;63074;44.696;10.358;2024-01-15T07:25:04;98709.25;;;5.94;100.00
74524;BME280;63074;44.696;10.358;2024-01-15T07:27:32;98699.88;;;5.91;100.00
74524;BME280;63074;44.696;10.358;2024-01-15T07:29:58;98702.13;;;5.59;100.00
74524;BME280;63074;44.696;10.358;2024-01-15T07:32:24;98708.25;;;5.20;100.00
74524;BME280;63074;44.696;10.358;2024-01-15T07:34:50;98710.59;;;5.56;100.00
74524;BME280;63074;44.696;10.358;2024-01-15T07:37:17;98711.09;;;6.22;100.00
74524;BME280;63074;44.696;10.358;2024-01-15T07:39:43;98702.09;;;6.11;100.00
74524;BME280;63074;44.696;10.358;2024-01-15T07:42:09;98696.81;;;6.44;100.00
74524;BME280;63074;44.696;10.358;2024-01-15T07:44:35;98697.16;;;5.51;100.00
74524;BME280;63074;44.696;10.358;2024-01-15T07:47:02;98710.06;;;6.39;100.00
74524;BME280;63074;44.696;10.358;2024-01-15T07:49:29;98703.22;;;6.60;100.00
74524;BME280;63074;44.696;10.358;2024-01-15T07:51:55;98708.31;;;6.78;100.00
74524;BME280;63074;44.696;10.358;2024-01-15T07:54:22;98713.09;;;7.32;100.00
74524;BME280;63074;44.696;10.358;2024-01-15T07:57:00;98712.63;;;8.00;100.00
74524;BME280;63074;44.696;10.358;2024-01-15T07:59:27;98713.34;;;8.44;100.00
74524;BME280;63074;44.696;10.358;2024-01-15T08:01:53;98704.09;;;8.57;100.00
74524;BME280;63074;44.696;10.358;2024-01-15T08:04:20;98725.59;;;8.67;100.00
74524;BME280;63074;44.696;10.358;2024-01-15T08:06:46;98726.69;;;8.71;100.00
74524;BME280;63074;44.696;10.358;2024-01-15T08:09:13;98721.66;;;8.75;100.00
74524;BME280;63074;44.696;10.358;2024-01-15T08:11:42;98718.41;;;9.47;100.00
74524;BME280;63074;44.696;10.358;2024-01-15T08:14:09;98725.16;;;9.12;100.00
74524;BME280;63074;44.696;10.358;2024-01-15T08:16:36;98717.59;;;9.04;100.00
74524;BME280;63074;44.696;10.358;2024-01-15T08:19:03;98726.03;;;9.28;100.00
74524;BME280;63074;44.696;10.358;2024-01-15T08:21:29;98725.47;;;8.84;100.00
74524;BME280;63074;44.696;10.358;2024-01-15T08:23:58;98728.44;;;9.25;100.00
74524;BME280;63074;44.696;10.358;2024-01-15T08:26:24;98731.03;;;8.45;100.00
74524;BME280;63074;44.696;10.358;2024-01-15T08:28:51;98724.94;;;9.24;100.00
74524;BME280;63074;44.696;10.358;2024-01-15T08:31:17;98724.59;;;9.10;100.00
74524;BME280;63074;44.696;10.358;2024-01-15T08:33:43;98729.41;;;9.08;100.00
74524;BME280;63074;44.696;10.358;2024-01-15T08:36:10;98730.13;;;8.94;100.00
74524;BME280;63074;44.696;10.358;2024-01-15T08:38:39;98730.03;;;9.21;100.00
74524;BME280;63074;44.696;10.358;2024-01-15T08:41:05;98738.06;;;9.21;100.00
74524;BME280;63074;44.696;10.358;2024-01-15T08:43:32;98740.94;;;8.77;100.00
74524;BME280;63074;44.696;10.358;2024-01-15T08:45:58;98751.69;;;8.50;100.00
74524;BME280;63074;44.696;10.358;2024-01-15T08:48:25;98768.38;;;8.57;100.00
74524;BME280;63074;44.696;10.358;2024-01-15T08:50:54;98749.31;;;9.18;100.00
74524;BME280;63074;44.696;10.358;2024-01-15T08:53:20;98754.03;;;8.20;100.00
74524;BME280;63074;44.696;10.358;2024-01-15T08:55:47;98752.38;;;8.40;100.00
74524;BME280;63074;44.696;10.358;2024-01-15T08:58:14;98747.53;;;8.37;100.00
74524;BME280;63074;44.696;10.358;2024-01-15T09:00:40;98744.22;;;8.84;100.00
74524;BME280;63074;44.696;10.358;2024-01-15T09:03:07;98739.94;;;7.03;100.00
74524;BME280;63074;44.696;10.358;2024-01-15T09:05:34;98740.09;;;7.52;100.00
74524;BME280;63074;44.696;10.358;2024-01-15T09:08:01;98750.38;;;7.05;100.00
74524;BME280;63074;44.696;10.358;2024-01-15T09:10:27;98754.03;;;7.16;100.00
74524;BME280;63074;44.696;10.358;2024-01-15T09:12:53;98750.50;;;7.49;100.00
74524;BME280;63074;44.696;10.358;2024-01-15T09:15:19;98750.66;;;8.29;100.00
74524;BME280;63074;44.696;10.358;2024-01-15T09:17:46;98733.53;;;9.26;100.00
74524;BME280;63074;44.696;10.358;2024-01-15T09:20:12;98741.22;;;8.00;100.00
74524;BME280;63074;44.696;10.358;2024-01-15T09:22:38;98739.53;;;8.16;100.00
74524;BME280;63074;44.696;10.358;2024-01-15T09:25:10;98739.56;;;7.50;100.00
74524;BME280;63074;44.696;10.358;2024-01-15T09:27:37;98734.94;;;7.89;100.00
74524;BME280;63074;44.696;10.358;2024-01-15T09:30:04;98739.44;;;8.05;100.00
74524;BME280;63074;44.696;10.358;2024-01-15T09:32:30;98741.34;;;8.10;100.00
74524;BME280;63074;44.696;10.358;2024-01-15T09:34:58;98740.28;;;8.33;100.00
74524;BME280;63074;44.696;10.358;2024-01-15T09:37:25;98741.19;;;8.22;100.00
74524;BME280;63074;44.696;10.358;2024-01-15T09:39:51;98740.28;;;8.11;100.00
74524;BME280;63074;44.696;10.358;2024-01-15T09:42:18;98743.78;;;8.38;100.00
74524;BME280;63074;44.696;10.358;2024-01-15T09:44:45;98740.22;;;7.84;100.00
74524;BME280;63074;44.696;10.358;2024-01-15T09:47:13;98741.19;;;8.43;100.00
74524;BME280;63074;44.696;10.358;2024-01-15T09:49:39;98747.84;;;8.41;100.00
74524;BME280;63074;44.696;10.358;2024-01-15T09:52:07;98736.94;;;7.99;100.00
74524;BME280;63074;44.696;10.358;2024-01-15T09:54:34;98734.25;;;7.99;100.00
74524;BME280;63074;44.696;10.358;2024-01-15T09:57:01;98729.53;;;8.06;100.00
74524;BME280;63074;44.696;10.358;2024-01-15T09:59:27;98725.16;;;8.49;100.00
74524;BME280;63074;44.696;10.358;2024-01-15T10:01:54;98717.72;;;8.29;100.00
74524;BME280;63074;44.696;10.358;2024-01-15T10:04:21;98701.78;;;8.71;100.00
74524;BME280;63074;44.696;10.358;2024-01-15T10:06:48;98689.25;;;8.44;100.00
74524;BME280;63074;44.696;10.358;2024-01-15T10:09:16;98688.34;;;8.07;100.00
74524;BME280;63074;44.696;10.358;2024-01-15T10:11:44;98686.50;;;7.86;100.00
74524;BME280;63074;44.696;10.358;2024-01-15T10:14:11;98696.66;;;8.32;100.00
74524;BME280;63074;44.696;10.358;2024-01-15T10:16:41;98696.72;;;8.16;100.00
74524;BME280;63074;44.696;10.358;2024-01-15T10:19:10;98683.34;;;8.42;100.00
74524;BME280;63074;44.696;10.358;2024-01-15T10:21:37;98689.34;;;8.28;100.00
74524;BME280;63074;44.696;10.358;2024-01-15T10:24:04;98680.59;;;9.01;100.00
74524;BME280;63074;44.696;10.358;2024-01-15T10:26:31;98665.06;;;9.03;100.00
74524;BME280;63074;44.696;10.358;2024-01-15T10:29:01;98660.59;;;9.24;100.00
74524;BME280;63074;44.696;10.358;2024-01-15T10:31:27;98663.81;;;8.79;100.00
74524;BME280;63074;44.696;10.358;2024-01-15T10:33:55;98654.03;;;8.95;100.00
74524;BME280;63074;44.696;10.358;2024-01-15T10:36:35;98653.06;;;9.11;100.00
74524;BME280;63074;44.696;10.358;2024-01-15T10:39:01;98652.59;;;8.82;100.00
74524;BME280;63074;44.696;10.358;2024-01-15T10:41:28;98650.69;;;9.25;100.00
74524;BME280;63074;44.696;10.358;2024-01-15T10:43:55;98650.00;;;8.97;100.00
74524;BME280;63074;44.696;10.358;2024-01-15T10:46:21;98653.47;;;9.40;100.00
74524;BME280;63074;44.696;10.358;2024-01-15T10:48:47;98644.47;;;9.09;100.00
74524;BME280;63074;44.696;10.358;2024-01-15T10:51:13;98636.34;;;9.56;100.00
74524;BME280;63074;44.696;10.358;2024-01-15T10:53:42;98626.69;;;9.50;100.00
74524;BME280;63074;44.696;10.358;2024-01-15T10:56:10;98626.22;;;9.06;100.00
74524;BME280;63074;44.696;10.358;2024-01-15T10:58:39;98608.56;;;8.63;100.00
74524;BME280;63074;44.696;10.358;2024-01-15T11:01:05;98606.75;;;9.21;100.00
74524;BME280;63074;44.696;10.358;2024-01-15T11:03:32;98609.06;;;9.69;100.00
74524;BME280;63074;44.696;10.358;2024-01-15T11:06:00;98598.91;;;9.81;100.00
74524;BME280;63074;44.696;10.358;2024-01-15T11:08:26;98603.44;;;9.76;100.00
74524;BME280;63074;44.696;10.358;2024-01-15T11:10:53;98598.09;;;10.88;100.00
74524;BME280;63074;44.696;10.358;2024-01-15T11:13:22;98590.78;;;11.08;100.00
74524;BME280;63074;44.696;10.358;2024-01-15T11:16:07;98582.78;;;10.83;100.00
74524;BME280;63074;44.696;10.358;2024-01-15T11:18:42;98580.53;;;11.21;100.00
74524;BME280;63074;44.696;10.358;2024-01-15T11:23:52;98572.38;;;11.41;100.00
74524;BME280;63074;44.696;10.358;2024-01-15T11:29:10;98558.66;;;10.17;100.00
74524;BME280;63074;44.696;10.358;2024-01-15T11:34:09;98553.03;;;10.44;100.00
74524;BME280;63074;44.696;10.358;2024-01-15T11:39:40;98548.56;;;11.09;100.00
74524;BME280;63074;44.696;10.358;2024-01-15T11:42:09;98541.09;;;11.99;100.00
74524;BME280;63074;44.696;10.358;2024-01-15T11:44:37;98540.31;;;10.95;100.00
74524;BME280;63074;44.696;10.358;2024-01-15T11:47:05;98543.88;;;11.40;100.00
74524;BME280;63074;44.696;10.358;2024-01-15T11:52:18;98527.91;;;12.32;100.00
74524;BME280;63074;44.696;10.358;2024-01-15T11:55:00;98524.13;;;11.00;100.00
74524;BME280;63074;44.696;10.358;2024-01-15T11:57:41;98524.81;;;11.26;100.00
74524;BME280;63074;44.696;10.358;2024-01-15T12:00:10;98515.84;;;13.25;100.00
74524;BME280;63074;44.696;10.358;2024-01-15T12:02:41;98504.59;;;13.17;100.00
74524;BME280;63074;44.696;10.358;2024-01-15T12:05:09;98504.44;;;14.35;100.00
74524;BME280;63074;44.696;10.358;2024-01-15T12:07:35;98497.50;;;13.97;100.00
74524;BME280;63074;44.696;10.358;2024-01-15T12:10:02;98481.63;;;13.58;100.00
74524;BME280;63074;44.696;10.358;2024-01-15T12:15:19;98483.88;;;14.80;100.00
74524;BME280;63074;44.696;10.358;2024-01-15T12:17:46;98482.53;;;12.92;100.00
74524;BME280;63074;44.696;10.358;2024-01-15T12:20:13;98486.97;;;14.74;100.00
74524;BME280;63074;44.696;10.358;2024-01-15T12:22:40;98483.94;;;15.66;100.00
74524;BME280;63074;44.696;10.358;2024-01-15T12:25:06;98471.91;;;16.57;100.00
74524;BME280;63074;44.696;10.358;2024-01-15T12:27:34;98461.72;;;17.10;100.00
74524;BME280;63074;44.696;10.358;2024-01-15T12:30:00;98463.56;;;20.89;83.31
74524;BME280;63074;44.696;10.358;2024-01-15T12:32:26;98479.03;;;25.01;51.27
74524;BME280;63074;44.696;10.358;2024-01-15T12:34:52;98485.38;;;28.55;43.68
74524;BME280;63074;44.696;10.358;2024-01-15T12:37:19;98493.66;;;29.19;39.49
74524;BME280;63074;44.696;10.358;2024-01-15T12:39:46;98478.13;;;29.78;38.45
74524;BME280;63074;44.696;10.358;2024-01-15T12:42:13;98484.03;;;29.87;37.57
74524;BME280;63074;44.696;10.358;2024-01-15T12:44:40;98479.97;;;31.69;35.34
74524;BME280;63074;44.696;10.358;2024-01-15T12:47:06;98482.63;;;33.41;32.33
74524;BME280;63074;44.696;10.358;2024-01-15T12:49:32;98473.03;;;32.95;31.69
74524;BME280;63074;44.696;10.358;2024-01-15T12:51:59;98475.97;;;32.61;32.38
74524;BME280;63074;44.696;10.358;2024-01-15T12:54:26;98475.88;;;34.01;30.55
74524;BME280;63074;44.696;10.358;2024-01-15T12:56:52;98467.41;;;32.75;31.64
74524;BME280;63074;44.696;10.358;2024-01-15T12:59:19;98461.28;;;32.87;31.00
74524;BME280;63074;44.696;10.358;2024-01-15T13:01:45;98464.38;;;33.79;30.30
74524;BME280;63074;44.696;10.358;2024-01-15T13:04:21;98457.50;;;32.74;30.13